createdAt,value
2022-09-18T00:01:40.727Z,10.10
2022-09-18T00:04:12.492Z,10.20
2022-09-18T00:06:44.601Z,10.20
2022-09-18T00:09:15.631Z,10.20
2022-09-18T00:11:46.646Z,10.30
2022-09-18T00:14:17.971Z,10.30
2022-09-18T00:16:46.510Z,10.30
2022-09-18T00:19:16.140Z,10.30
2022-09-18T00:21:48.113Z,10.30
2022-09-18T00:24:18.652Z,10.30
2022-09-18T00:26:47.414Z,10.30
2022-09-18T00:29:17.504Z,10.20
2022-09-18T00:31:46.706Z,10.30
2022-09-18T00:34:16.602Z,10.20
2022-09-18T00:36:46.842Z,10.10
2022-09-18T00:39:15.507Z,10.10
2022-09-18T00:41:44.908Z,10.10
2022-09-18T00:44:35.918Z,10.10
2022-09-18T00:47:20.896Z,10.10
2022-09-18T00:49:52.684Z,10.10
2022-09-18T00:52:26.913Z,10.00
2022-09-18T00:55:01.333Z,10.00
2022-09-18T00:57:34.027Z,10.00
2022-09-18T01:00:05.162Z,10.00
2022-09-18T01:02:35.141Z,9.90
2022-09-18T01:05:04.074Z,9.90
2022-09-18T01:07:56.667Z,9.90
2022-09-18T01:10:43.461Z,9.80
2022-09-18T01:13:17.204Z,9.80
2022-09-18T01:15:55.802Z,9.80
2022-09-18T01:18:31.367Z,9.70
2022-09-18T01:21:10.899Z,9.70
2022-09-18T01:24:19.847Z,9.60
2022-09-18T01:26:56.965Z,9.70
2022-09-18T01:29:46.569Z,9.60
2022-09-18T01:32:23.335Z,9.60
2022-09-18T01:34:59.987Z,9.60
2022-09-18T01:37:33.901Z,9.70
2022-09-18T01:40:11.731Z,9.70
2022-09-18T01:42:42.493Z,9.70
2022-09-18T01:45:14.203Z,9.70
2022-09-18T01:47:47.596Z,9.80
2022-09-18T01:50:17.972Z,9.80
2022-09-18T01:52:50.064Z,9.80
2022-09-18T01:55:23.501Z,9.80
2022-09-18T01:57:56.482Z,9.80
2022-09-18T02:00:27.511Z,9.80
2022-09-18T02:03:02.154Z,9.70
2022-09-18T02:05:34.444Z,9.70
2022-09-18T02:08:11.465Z,9.70
2022-09-18T02:10:45.493Z,9.70
2022-09-18T02:13:17.072Z,9.70
2022-09-18T02:15:50.693Z,9.70
2022-09-18T02:18:25.571Z,9.70
2022-09-18T02:20:55.874Z,9.70
2022-09-18T02:23:26.922Z,9.70
2022-09-18T02:25:59.956Z,9.80
2022-09-18T02:28:33.077Z,9.80
2022-09-18T02:31:03.145Z,9.80
2022-09-18T02:33:33.061Z,9.80
2022-09-18T02:36:21.242Z,9.80
2022-09-18T02:38:58.625Z,9.80
2022-09-18T02:41:41.193Z,9.90
2022-09-18T02:44:14.610Z,9.90
2022-09-18T02:46:56.520Z,9.90
2022-09-18T02:49:36.289Z,10.00
2022-09-18T02:52:07.795Z,10.00
2022-09-18T02:54:43.432Z,10.00
2022-09-18T02:57:16.003Z,10.00
2022-09-18T02:59:49.081Z,10.00
2022-09-18T03:02:20.930Z,10.10
2022-09-18T03:04:49.744Z,10.10
2022-09-18T03:07:20.801Z,10.10
2022-09-18T03:09:49.305Z,10.00
2022-09-18T03:12:17.961Z,10.00
2022-09-18T03:14:46.272Z,10.00
2022-09-18T03:17:14.641Z,10.00
2022-09-18T03:19:45.325Z,10.00
2022-09-18T03:22:13.972Z,10.00
2022-09-18T03:24:42.382Z,10.00
2022-09-18T03:27:11.205Z,10.00
2022-09-18T03:29:39.486Z,10.00
2022-09-18T03:32:07.824Z,10.00
2022-09-18T03:34:36.220Z,10.00
2022-09-18T03:37:06.172Z,10.00
2022-09-18T03:39:37.733Z,10.00
2022-09-18T03:42:06.562Z,10.10
2022-09-18T03:44:34.904Z,10.10
2022-09-18T03:47:03.265Z,10.10
2022-09-18T03:49:31.653Z,10.10
2022-09-18T03:52:00.024Z,10.10
2022-09-18T03:54:29.919Z,10.10
2022-09-18T03:56:58.301Z,10.10
2022-09-18T03:59:26.683Z,10.10
2022-09-18T04:01:55.025Z,10.10
2022-09-18T04:04:29.694Z,10.10
2022-09-18T04:06:58.210Z,10.10
2022-09-18T04:09:26.641Z,10.10
2022-09-18T04:11:56.454Z,10.10
2022-09-18T04:14:29.844Z,10.10
2022-09-18T04:16:58.540Z,10.10
2022-09-18T04:19:27.023Z,10.10
2022-09-18T04:21:55.534Z,10.00
2022-09-18T04:24:24.139Z,10.00
2022-09-18T04:26:52.888Z,10.10
2022-09-18T04:29:22.763Z,10.10
2022-09-18T04:31:51.257Z,10.10
2022-09-18T04:34:19.751Z,10.10
2022-09-18T04:36:48.202Z,10.10
2022-09-18T04:39:16.618Z,10.10
2022-09-18T04:41:45.690Z,10.10
2022-09-18T04:44:14.170Z,10.10
2022-09-18T04:46:44.073Z,10.20
2022-09-18T04:49:12.492Z,10.20
2022-09-18T04:51:41.031Z,10.20
2022-09-18T04:54:10.021Z,10.20
2022-09-18T04:56:38.540Z,10.10
2022-09-18T04:59:07.045Z,10.10
2022-09-18T05:01:36.099Z,10.10
2022-09-18T05:04:06.835Z,10.10
2022-09-18T05:06:35.441Z,10.10
2022-09-18T05:09:04.094Z,10.20
2022-09-18T05:11:33.563Z,10.20
2022-09-18T05:14:02.021Z,10.20
2022-09-18T05:16:30.574Z,10.20
2022-09-18T05:18:59.044Z,10.30
2022-09-18T05:21:28.933Z,10.30
2022-09-18T05:23:58.484Z,10.30
2022-09-18T05:26:27.039Z,10.30
2022-09-18T05:28:55.294Z,10.40
2022-09-18T05:31:23.996Z,10.40
2022-09-18T05:33:52.391Z,10.40
2022-09-18T05:36:20.851Z,10.50
2022-09-18T05:38:51.637Z,10.50
2022-09-18T05:41:20.336Z,10.50
2022-09-18T05:43:48.763Z,10.50
2022-09-18T05:46:17.202Z,10.50
2022-09-18T05:48:46.699Z,10.50
2022-09-18T05:51:14.982Z,10.50
2022-09-18T05:53:48.538Z,10.50
2022-09-18T05:56:18.988Z,10.50
2022-09-18T05:58:47.460Z,10.50
2022-09-18T06:01:15.928Z,10.60
2022-09-18T06:03:45.530Z,10.60
2022-09-18T06:06:14.029Z,10.50
2022-09-18T06:08:42.621Z,10.50
2022-09-18T06:11:11.194Z,10.50
2022-09-18T06:13:41.011Z,10.40
2022-09-18T06:16:09.615Z,10.40
2022-09-18T06:18:38.120Z,10.40
2022-09-18T06:21:07.671Z,10.40
2022-09-18T06:23:36.303Z,10.40
2022-09-18T06:26:07.856Z,10.30
2022-09-18T06:28:37.745Z,10.30
2022-09-18T06:31:07.734Z,10.30
2022-09-18T06:33:36.405Z,10.30
2022-09-18T06:36:09.007Z,10.40
2022-09-18T06:38:37.518Z,10.40
2022-09-18T06:41:06.193Z,10.50
2022-09-18T06:43:36.322Z,10.50
2022-09-18T06:46:05.912Z,10.50
2022-09-18T06:48:35.819Z,10.60
2022-09-18T06:51:04.608Z,10.60
2022-09-18T06:53:33.260Z,10.60
2022-09-18T06:56:03.393Z,10.70
2022-09-18T06:58:32.042Z,10.70
2022-09-18T07:01:03.829Z,10.70
2022-09-18T07:03:32.502Z,10.80
2022-09-18T07:06:02.383Z,10.80
2022-09-18T07:08:31.420Z,10.80
2022-09-18T07:11:02.622Z,10.90
2022-09-18T07:13:33.151Z,10.90
2022-09-18T07:16:01.830Z,10.90
2022-09-18T07:18:30.313Z,11.00
2022-09-18T07:21:01.521Z,11.00
2022-09-18T07:23:33.070Z,11.00
2022-09-18T07:26:01.940Z,11.10
2022-09-18T07:28:30.850Z,11.20
2022-09-18T07:31:04.570Z,11.20
2022-09-18T07:33:33.183Z,11.20
2022-09-18T07:36:04.070Z,11.30
2022-09-18T07:38:34.370Z,11.30
2022-09-18T07:41:03.219Z,11.40
2022-09-18T07:43:31.929Z,11.40
2022-09-18T07:46:00.548Z,11.40
2022-09-18T07:48:28.895Z,11.40
2022-09-18T07:50:58.903Z,11.40
2022-09-18T07:53:29.579Z,11.50
2022-09-18T07:55:57.861Z,11.50
2022-09-18T07:58:27.016Z,11.60
2022-09-18T08:00:55.272Z,11.70
2022-09-18T08:03:25.386Z,11.70
2022-09-18T08:05:55.021Z,11.70
2022-09-18T08:08:23.684Z,11.60
2022-09-18T08:10:53.923Z,11.60
2022-09-18T08:13:22.849Z,11.60
2022-09-18T08:15:52.200Z,11.60
2022-09-18T08:18:22.477Z,11.60
2022-09-18T08:20:51.411Z,11.50
2022-09-18T08:23:21.401Z,11.50
2022-09-18T08:25:50.399Z,11.50
2022-09-18T08:28:20.362Z,11.50
2022-09-18T08:30:48.923Z,11.50
2022-09-18T08:33:17.469Z,11.50
2022-09-18T08:35:45.871Z,11.50
2022-09-18T08:38:14.222Z,11.40
2022-09-18T08:41:04.952Z,11.40
2022-09-18T08:43:53.212Z,11.40
2022-09-18T08:46:26.120Z,11.40
2022-09-18T08:49:02.593Z,11.40
2022-09-18T08:51:34.637Z,11.40
2022-09-18T08:54:18.178Z,11.40
2022-09-18T08:56:47.689Z,11.40
2022-09-18T08:59:24.359Z,11.40
2022-09-18T09:02:09.432Z,11.40
2022-09-18T09:04:37.969Z,11.30
2022-09-18T09:07:21.263Z,11.30
2022-09-18T09:10:07.267Z,11.30
2022-09-18T09:12:42.971Z,11.30
2022-09-18T09:15:26.166Z,11.30
2022-09-18T09:18:02.013Z,11.30
2022-09-18T09:20:42.437Z,11.30
2022-09-18T09:23:20.104Z,11.20
2022-09-18T09:25:56.804Z,11.20
2022-09-18T09:28:29.441Z,11.20
2022-09-18T09:31:03.132Z,11.20
2022-09-18T09:33:37.083Z,11.20
2022-09-18T09:36:09.522Z,11.20
2022-09-18T09:38:46.238Z,11.20
2022-09-18T09:41:21.043Z,11.20
2022-09-18T09:43:59.160Z,11.20
2022-09-18T09:46:43.412Z,11.20
2022-09-18T09:49:15.421Z,11.20
2022-09-18T09:51:54.506Z,11.30
2022-09-18T09:54:23.225Z,11.30
2022-09-18T09:56:59.962Z,11.30
2022-09-18T09:59:34.935Z,11.30
2022-09-18T10:02:29.843Z,11.30
2022-09-18T10:05:03.592Z,11.40
2022-09-18T10:07:40.568Z,11.30
2022-09-18T10:10:20.056Z,11.40
2022-09-18T10:12:53.582Z,11.40
2022-09-18T10:15:25.180Z,11.50
2022-09-18T10:17:59.772Z,11.50
2022-09-18T10:20:30.511Z,11.50
2022-09-18T10:23:04.132Z,11.50
2022-09-18T10:25:40.752Z,11.50
2022-09-18T10:28:13.945Z,11.50
2022-09-18T10:31:00.774Z,11.40
2022-09-18T10:33:37.540Z,11.50
2022-09-18T10:36:26.856Z,11.50
2022-09-18T10:38:55.442Z,11.60
2022-09-18T10:41:30.750Z,11.50
2022-09-18T10:44:05.435Z,11.60
2022-09-18T10:46:35.941Z,11.60
2022-09-18T10:49:19.908Z,11.70
2022-09-18T10:51:48.466Z,11.70
2022-09-18T10:54:19.582Z,11.70
2022-09-18T10:56:48.556Z,11.70
2022-09-18T10:59:34.877Z,11.60
2022-09-18T11:02:06.365Z,11.60
2022-09-18T11:04:36.875Z,11.60
2022-09-18T11:07:08.077Z,11.70
2022-09-18T11:09:40.305Z,11.70
2022-09-18T11:12:17.853Z,11.70
2022-09-18T11:14:50.611Z,11.70
2022-09-18T11:17:28.185Z,11.70
2022-09-18T11:20:01.115Z,11.60
2022-09-18T11:22:40.587Z,11.60
2022-09-18T11:25:19.596Z,11.60
2022-09-18T11:27:49.711Z,11.60
2022-09-18T11:30:23.998Z,11.60
2022-09-18T11:32:56.402Z,11.50
2022-09-18T11:35:30.213Z,11.60
2022-09-18T11:38:06.360Z,11.50
2022-09-18T11:40:48.380Z,11.50
2022-09-18T11:43:18.031Z,11.50
2022-09-18T11:45:54.642Z,11.50
2022-09-18T11:48:30.750Z,11.50
2022-09-18T11:51:04.045Z,11.50
2022-09-18T11:53:39.399Z,11.40
2022-09-18T11:56:13.782Z,11.40
2022-09-18T11:58:46.441Z,11.40
2022-09-18T12:01:26.313Z,11.40
2022-09-18T12:04:02.200Z,11.30
2022-09-18T12:06:42.062Z,11.30
2022-09-18T12:09:16.935Z,11.30
2022-09-18T12:11:52.838Z,11.20
2022-09-18T12:14:26.354Z,11.20
2022-09-18T12:17:00.935Z,11.20
2022-09-18T12:19:35.866Z,11.20
2022-09-18T12:22:12.575Z,11.20
2022-09-18T12:24:41.323Z,11.10
2022-09-18T12:27:20.609Z,11.20
2022-09-18T12:30:03.607Z,11.20
2022-09-18T12:32:55.437Z,11.20
2022-09-18T12:35:32.595Z,11.20
2022-09-18T12:38:12.702Z,11.20
2022-09-18T12:41:12.562Z,11.20
2022-09-18T12:44:18.865Z,11.20
2022-09-18T12:47:06.978Z,11.20
2022-09-18T12:50:05.030Z,11.30
2022-09-18T12:53:06.638Z,11.30
2022-09-18T12:55:57.333Z,11.30
2022-09-18T12:59:09.728Z,11.40
2022-09-18T13:01:45.246Z,11.40
2022-09-18T13:04:22.829Z,11.50
2022-09-18T13:06:57.807Z,11.50
2022-09-18T13:09:31.986Z,11.50
2022-09-18T13:12:06.818Z,11.40
2022-09-18T13:14:40.492Z,11.40
2022-09-18T13:17:15.573Z,11.40
2022-09-18T13:19:47.883Z,11.40
2022-09-18T13:22:19.638Z,11.50
2022-09-18T13:24:52.515Z,11.40
2022-09-18T13:27:25.417Z,11.40
2022-09-18T13:29:59.245Z,11.40
2022-09-18T13:32:40.857Z,11.40
2022-09-18T13:35:22.481Z,11.40
2022-09-18T13:38:04.113Z,11.50
2022-09-18T13:40:35.904Z,11.50
2022-09-18T13:43:23.837Z,11.50
2022-09-18T13:45:52.943Z,11.50
2022-09-18T13:48:29.929Z,11.50
2022-09-18T13:51:01.081Z,11.60
2022-09-18T13:53:35.113Z,11.60
2022-09-18T13:56:05.035Z,11.60
2022-09-18T13:58:52.450Z,11.70
2022-09-18T14:02:03.126Z,11.70
2022-09-18T14:04:58.195Z,11.90
2022-09-18T14:07:58.153Z,11.90
2022-09-18T14:10:33.441Z,12.00
2022-09-18T14:13:30.862Z,11.90
2022-09-18T14:16:06.999Z,11.90
2022-09-18T14:18:40.815Z,11.90
2022-09-18T14:21:21.794Z,11.90
2022-09-18T14:24:19.339Z,11.90
2022-09-18T14:27:02.758Z,11.90
2022-09-18T14:29:34.971Z,11.90
2022-09-18T14:32:05.633Z,11.90
2022-09-18T14:34:40.568Z,12.00
2022-09-18T14:37:26.901Z,12.10
2022-09-18T14:39:56.151Z,12.10
2022-09-18T14:42:33.468Z,12.10
2022-09-18T14:45:19.776Z,12.20
2022-09-18T14:47:50.760Z,12.20
2022-09-18T14:50:29.035Z,12.20
2022-09-18T14:52:59.016Z,12.20
2022-09-18T14:55:35.309Z,12.20
2022-09-18T14:58:07.424Z,12.10
2022-09-18T15:00:37.931Z,12.20
2022-09-18T15:03:10.746Z,12.20
2022-09-18T15:05:39.329Z,12.20
2022-09-18T15:08:16.833Z,12.20
2022-09-18T15:10:50.179Z,12.30
2022-09-18T15:13:20.720Z,12.20
2022-09-18T15:15:58.440Z,12.30
2022-09-18T15:18:29.628Z,12.30
2022-09-18T15:21:01.840Z,12.30
2022-09-18T15:23:32.370Z,12.20
2022-09-18T15:26:04.191Z,12.20
2022-09-18T15:32:12.891Z,12.20
2022-09-18T15:35:17.464Z,12.20
2022-09-18T15:38:21.566Z,12.10
2022-09-18T15:45:33.736Z,12.10
2022-09-18T15:48:47.625Z,12.00
2022-09-18T15:51:43.991Z,12.00
2022-09-18T15:54:43.574Z,12.00
2022-09-18T15:57:24.771Z,12.00
2022-09-18T16:00:16.105Z,11.90
2022-09-18T16:03:14.814Z,11.90
2022-09-18T16:06:12.170Z,11.90
2022-09-18T16:08:52.634Z,11.90
2022-09-18T16:11:55.811Z,11.90
2022-09-18T16:15:10.484Z,11.80
2022-09-18T16:18:08.194Z,11.80
2022-09-18T16:24:38.374Z,11.80
2022-09-18T16:27:27.383Z,11.80
2022-09-18T16:30:05.132Z,11.90
2022-09-18T16:35:57.175Z,11.80
2022-09-18T16:38:38.157Z,11.80
2022-09-18T16:41:45.890Z,11.80
2022-09-18T16:44:24.709Z,11.80
2022-09-18T16:47:09.888Z,11.70
2022-09-18T16:50:06.747Z,11.70
2022-09-18T16:52:53.649Z,11.70
2022-09-18T16:55:34.689Z,11.70
2022-09-18T16:58:30.816Z,11.60
2022-09-18T17:01:14.526Z,11.60
2022-09-18T17:04:07.438Z,11.60
2022-09-18T17:07:22.096Z,11.60
2022-09-18T17:10:07.884Z,11.50
2022-09-18T17:13:11.674Z,11.50
2022-09-18T17:16:09.270Z,11.50
2022-09-18T17:18:51.821Z,11.50
2022-09-18T17:21:47.076Z,11.40
2022-09-18T17:24:41.736Z,11.40
2022-09-18T17:27:48.777Z,11.40
2022-09-18T17:33:54.633Z,11.40
2022-09-18T17:37:02.741Z,11.30
2022-09-18T17:39:57.790Z,11.30
2022-09-18T17:42:42.270Z,11.20
2022-09-18T17:45:43.539Z,11.20
2022-09-18T17:51:52.528Z,11.20
2022-09-18T17:54:45.062Z,11.20
2022-09-18T17:57:42.100Z,11.10
2022-09-18T18:00:28.813Z,11.10
2022-09-18T18:03:19.505Z,11.00
2022-09-18T18:06:22.651Z,10.90
2022-09-18T18:09:25.642Z,10.90
2022-09-18T18:12:08.782Z,10.90
2022-09-18T18:14:56.903Z,10.80
2022-09-18T18:17:42.106Z,10.80
2022-09-18T18:20:41.535Z,10.70
2022-09-18T18:23:57.722Z,10.70
2022-09-18T18:27:13.850Z,10.60
2022-09-18T18:30:16.079Z,10.60
2022-09-18T18:32:55.371Z,10.50
2022-09-18T18:36:07.803Z,10.50
2022-09-18T18:41:55.247Z,10.40
2022-09-18T18:48:03.948Z,10.30
2022-09-18T18:50:44.150Z,10.30
2022-09-18T18:53:38.182Z,10.20
2022-09-18T18:56:17.303Z,10.20
2022-09-18T18:59:08.198Z,10.20
2022-09-18T19:01:55.430Z,10.20
2022-09-18T19:04:53.494Z,10.20
2022-09-18T19:07:45.543Z,10.20
2022-09-18T19:10:38.694Z,10.20
2022-09-18T19:16:50.921Z,10.10
2022-09-18T19:19:43.245Z,10.10
2022-09-18T19:22:49.444Z,10.10
2022-09-18T19:26:03.842Z,10.10
2022-09-18T19:32:16.726Z,10.00
2022-09-18T19:35:00.750Z,10.00
2022-09-18T19:37:40.266Z,9.90
2022-09-18T19:40:40.399Z,9.90
2022-09-18T19:43:32.726Z,9.90
2022-09-18T19:46:24.320Z,9.90
2022-09-18T19:49:29.599Z,9.90
2022-09-18T19:52:23.636Z,9.90
2022-09-18T19:55:11.054Z,9.90
2022-09-18T19:58:13.411Z,9.90
2022-09-18T20:00:54.459Z,9.90
2022-09-18T20:03:44.773Z,9.90
2022-09-18T20:06:30.707Z,9.90
2022-09-18T20:09:35.945Z,9.90
2022-09-18T20:12:41.593Z,10.00
2022-09-18T20:15:52.639Z,10.00
2022-09-18T20:18:47.601Z,10.00
2022-09-18T20:24:38.800Z,10.10
2022-09-18T20:27:52.603Z,10.10
2022-09-18T20:30:44.290Z,10.10
2022-09-18T20:33:38.859Z,10.00
2022-09-18T20:36:49.277Z,10.00
2022-09-18T20:39:25.617Z,10.00
2022-09-18T20:42:14.295Z,10.00
2022-09-18T20:45:18.510Z,10.10
2022-09-18T20:47:57.648Z,10.10
2022-09-18T20:51:01.647Z,10.10
2022-09-18T20:54:14.994Z,10.10
2022-09-18T20:57:31.707Z,10.10
2022-09-18T21:03:14.696Z,10.10
2022-09-18T21:06:22.781Z,10.10
2022-09-18T21:09:09.420Z,10.10
2022-09-18T21:12:34.434Z,10.10
2022-09-18T21:15:20.282Z,10.00
2022-09-18T21:18:11.559Z,10.00
2022-09-18T21:21:09.849Z,10.00
2022-09-18T21:27:12.645Z,10.00
2022-09-18T21:30:04.314Z,10.00
2022-09-18T21:33:02.918Z,10.10
2022-09-18T21:35:36.801Z,10.10
2022-09-18T21:41:10.844Z,10.10
2022-09-18T21:43:49.620Z,10.10
2022-09-18T21:46:30.644Z,10.20
2022-09-18T21:49:13.954Z,10.20
2022-09-18T21:54:51.648Z,10.20
2022-09-18T21:57:46.736Z,10.20
2022-09-18T22:00:30.865Z,10.20
2022-09-18T22:03:12.996Z,10.20
2022-09-18T22:06:10.458Z,10.20
2022-09-18T22:08:54.128Z,10.20
2022-09-18T22:11:44.313Z,10.20
2022-09-18T22:14:29.596Z,10.10
2022-09-18T22:17:17.463Z,10.10
2022-09-18T22:19:51.439Z,10.10
2022-09-18T22:22:31.995Z,10.10
2022-09-18T22:25:09.495Z,10.10
2022-09-18T22:27:45.325Z,10.00
2022-09-18T22:30:31.110Z,10.00
2022-09-18T22:33:07.120Z,10.00
2022-09-18T22:35:46.343Z,9.90
2022-09-18T22:38:25.852Z,9.90
2022-09-18T22:41:09.218Z,9.80
2022-09-18T22:43:44.368Z,9.80
2022-09-18T22:46:24.340Z,9.80
2022-09-18T22:49:09.695Z,9.70
2022-09-18T22:51:50.107Z,9.70
2022-09-18T22:54:31.997Z,9.60
2022-09-18T22:57:16.001Z,9.60
2022-09-18T22:59:52.960Z,9.60
2022-09-18T23:02:32.206Z,9.60
2022-09-18T23:05:08.614Z,9.70
2022-09-18T23:07:42.063Z,9.70
2022-09-18T23:10:33.875Z,9.70
2022-09-18T23:13:19.156Z,9.70
2022-09-18T23:15:52.746Z,9.70
2022-09-18T23:18:32.186Z,9.80
2022-09-18T23:21:21.885Z,9.80
2022-09-18T23:26:53.697Z,9.80
2022-09-18T23:29:42.052Z,9.80
2022-09-18T23:32:29.382Z,9.80
2022-09-18T23:35:16.483Z,9.80
2022-09-18T23:38:04.679Z,9.80
2022-09-18T23:40:47.065Z,9.70
2022-09-18T23:43:24.855Z,9.70
2022-09-18T23:45:56.548Z,9.70
2022-09-18T23:49:04.720Z,9.70
2022-09-18T23:51:57.724Z,9.70
2022-09-18T23:54:38.844Z,9.70
2022-09-18T23:57:20.014Z,9.70
2022-09-18T23:59:58.520Z,9.70
